createdAt,value
2017-07-11T00:00:37.825Z,99.99
2017-07-11T00:01:47.772Z,99.99
2017-07-11T00:02:58.015Z,99.99
2017-07-11T00:04:08.265Z,99.99
2017-07-11T00:05:18.777Z,99.99
2017-07-11T00:06:28.741Z,99.99
2017-07-11T00:07:38.698Z,99.99
2017-07-11T00:08:48.637Z,99.99
2017-07-11T00:09:58.911Z,99.99
2017-07-11T00:11:09.491Z,99.99
2017-07-11T00:12:19.758Z,99.99
2017-07-11T00:13:30.033Z,99.99
2017-07-11T00:14:39.350Z,99.99
2017-07-11T00:15:49.643Z,99.99
2017-07-11T00:16:59.905Z,99.99
2017-07-11T00:18:10.164Z,99.99
2017-07-11T00:19:20.436Z,99.99
2017-07-11T00:20:30.400Z,99.99
2017-07-11T00:21:40.356Z,99.99
2017-07-11T00:22:50.569Z,99.99
2017-07-11T00:24:00.194Z,99.99
2017-07-11T00:25:10.134Z,99.99
2017-07-11T00:26:20.387Z,99.99
2017-07-11T00:27:30.028Z,99.99
2017-07-11T00:28:40.556Z,99.99
2017-07-11T00:29:50.815Z,99.99
2017-07-11T00:31:00.773Z,99.99
2017-07-11T00:32:10.081Z,99.99
2017-07-11T00:33:20.035Z,99.99
2017-07-11T00:34:30.564Z,99.99
2017-07-11T00:35:40.523Z,99.99
2017-07-11T00:36:50.796Z,99.99
2017-07-11T00:38:00.737Z,99.99
2017-07-11T00:39:10.680Z,99.99
2017-07-11T00:40:21.264Z,99.99
2017-07-11T00:41:31.524Z,99.99
2017-07-11T00:42:41.807Z,99.99
2017-07-11T00:43:52.082Z,99.99
2017-07-11T00:45:02.054Z,99.99
2017-07-11T00:46:12.248Z,99.99
2017-07-11T00:47:22.517Z,99.99
2017-07-11T00:48:32.794Z,99.99
2017-07-11T00:49:42.754Z,99.99
2017-07-11T00:50:53.083Z,99.99
2017-07-11T00:52:03.623Z,99.99
2017-07-11T00:53:13.585Z,99.99
2017-07-11T00:54:23.535Z,99.99
2017-07-11T00:55:33.804Z,99.99
2017-07-11T00:56:43.431Z,99.99
2017-07-11T00:57:53.306Z,99.99
2017-07-11T00:59:03.590Z,99.99
2017-07-11T01:00:13.859Z,99.99
2017-07-11T01:01:23.821Z,99.99
2017-07-11T01:02:34.070Z,99.99
2017-07-11T01:03:44.276Z,99.99
2017-07-11T01:04:54.549Z,99.99
2017-07-11T01:06:04.192Z,99.99
2017-07-11T01:07:14.151Z,99.99
2017-07-11T01:08:24.402Z,99.99
2017-07-11T01:09:34.968Z,99.99
2017-07-11T01:10:44.909Z,99.99
2017-07-11T01:11:54.865Z,99.99
2017-07-11T01:13:05.139Z,99.99
2017-07-11T01:14:15.401Z,99.99
2017-07-11T01:15:25.931Z,99.99
2017-07-11T01:16:36.203Z,99.99
2017-07-11T01:17:46.466Z,99.99
2017-07-11T01:18:56.429Z,99.99
2017-07-11T01:20:06.371Z,99.99
2017-07-11T01:21:16.904Z,99.99
2017-07-11T01:22:26.542Z,99.99
2017-07-11T01:23:36.496Z,99.99
2017-07-11T01:24:46.765Z,99.99
2017-07-11T01:25:56.722Z,99.99
2017-07-11T01:27:06.923Z,99.99
2017-07-11T01:28:17.194Z,99.99
2017-07-11T01:29:27.477Z,99.99
2017-07-11T01:30:37.734Z,99.99
2017-07-11T01:31:47.996Z,99.99
2017-07-11T01:32:58.569Z,99.99
2017-07-11T01:34:08.846Z,99.99
2017-07-11T01:35:18.805Z,99.99
2017-07-11T01:36:29.077Z,99.99
2017-07-11T01:37:38.701Z,99.99
2017-07-11T01:38:49.218Z,99.99
2017-07-11T01:39:58.844Z,99.99
2017-07-11T01:41:08.782Z,99.99
2017-07-11T01:42:18.428Z,99.99
2017-07-11T01:43:28.695Z,99.99
2017-07-11T01:44:38.594Z,99.99
2017-07-11T01:45:48.554Z,99.99
2017-07-11T01:46:57.870Z,99.99
2017-07-11T01:48:07.500Z,99.99
2017-07-11T01:49:17.764Z,99.99
2017-07-11T01:50:28.022Z,99.99
2017-07-11T01:51:38.278Z,99.99
2017-07-11T01:52:48.229Z,99.99
2017-07-11T01:53:58.487Z,99.99
2017-07-11T01:55:08.746Z,99.99
2017-07-11T01:56:18.989Z,99.99
2017-07-11T01:57:29.265Z,99.99
2017-07-11T01:58:38.903Z,99.99
2017-07-11T01:59:48.862Z,99.99
2017-07-11T02:00:58.838Z,99.99
2017-07-11T02:02:09.047Z,99.99
2017-07-11T02:03:18.998Z,99.99
2017-07-11T02:04:29.014Z,99.99
2017-07-11T02:05:38.968Z,99.99
2017-07-11T02:06:49.225Z,99.99
2017-07-11T02:07:59.752Z,99.99
2017-07-11T02:09:09.721Z,99.99
2017-07-11T02:10:19.996Z,99.99
2017-07-11T02:11:30.254Z,99.99
2017-07-11T02:12:40.528Z,99.99
2017-07-11T02:13:51.048Z,99.99
2017-07-11T02:15:01.327Z,99.99
2017-07-11T02:16:11.305Z,99.99
2017-07-11T02:17:20.932Z,99.99
2017-07-11T02:18:31.193Z,99.99
2017-07-11T02:19:41.395Z,99.99
2017-07-11T02:20:51.648Z,99.99
2017-07-11T02:22:01.285Z,99.99
2017-07-11T02:23:10.902Z,99.99
2017-07-11T02:24:20.843Z,99.99
2017-07-11T02:25:31.387Z,99.99
2017-07-11T02:26:41.657Z,99.99
2017-07-11T02:27:51.916Z,99.99
2017-07-11T02:29:02.185Z,99.99
2017-07-11T02:30:12.460Z,99.99
2017-07-11T02:31:22.981Z,99.99
2017-07-11T02:32:32.932Z,99.99
2017-07-11T02:33:43.193Z,99.99
2017-07-11T02:34:53.503Z,99.99
2017-07-11T02:36:03.776Z,99.99
2017-07-11T02:37:14.340Z,99.99
2017-07-11T02:38:24.276Z,99.99
2017-07-11T02:39:34.221Z,99.99
2017-07-11T02:40:44.162Z,99.99
2017-07-11T02:41:54.409Z,99.99
2017-07-11T02:43:04.290Z,99.99
2017-07-11T02:44:13.920Z,99.99
2017-07-11T02:45:24.189Z,99.99
2017-07-11T02:46:34.456Z,99.99
2017-07-11T02:47:44.731Z,99.99
2017-07-11T02:48:54.907Z,99.99
2017-07-11T02:50:05.178Z,99.99
2017-07-11T02:51:15.152Z,99.99
2017-07-11T02:52:25.434Z,99.99
2017-07-11T02:53:35.699Z,99.99
2017-07-11T02:54:46.213Z,99.99
2017-07-11T02:55:56.481Z,99.99
2017-07-11T02:57:06.750Z,99.99
2017-07-11T02:58:17.005Z,99.99
2017-07-11T02:59:27.273Z,99.99
2017-07-11T03:00:37.471Z,99.99
2017-07-11T03:01:47.730Z,99.99
2017-07-11T03:02:57.685Z,99.99
2017-07-11T03:04:07.952Z,99.99
2017-07-11T03:05:18.237Z,99.99
2017-07-11T03:06:28.768Z,99.99
2017-07-11T03:07:39.036Z,99.99
2017-07-11T03:08:49.311Z,99.99
2017-07-11T03:09:59.569Z,99.99
2017-07-11T03:11:09.841Z,99.99
2017-07-11T03:12:20.338Z,99.99
2017-07-11T03:13:30.592Z,99.99
2017-07-11T03:14:40.875Z,99.99
2017-07-11T03:15:51.176Z,99.99
2017-07-11T03:17:01.132Z,99.99
2017-07-11T03:18:11.328Z,99.99
2017-07-11T03:19:21.283Z,99.99
2017-07-11T03:20:31.545Z,99.99
2017-07-11T03:21:41.812Z,99.99
2017-07-11T03:22:52.088Z,99.99
2017-07-11T03:24:02.642Z,99.99
2017-07-11T03:25:12.924Z,99.99
2017-07-11T03:26:23.192Z,99.99
2017-07-11T03:27:32.832Z,99.99
2017-07-11T03:28:42.779Z,99.99
2017-07-11T03:29:52.988Z,99.99
2017-07-11T03:31:02.934Z,99.99
2017-07-11T03:32:13.214Z,99.99
2017-07-11T03:33:23.497Z,99.99
2017-07-11T03:34:33.755Z,99.99
2017-07-11T03:35:44.315Z,99.99
2017-07-11T03:36:54.251Z,99.99
2017-07-11T03:38:04.519Z,99.99
2017-07-11T03:39:14.787Z,99.99
2017-07-11T03:40:25.057Z,99.99
2017-07-11T03:41:35.567Z,99.99
2017-07-11T03:42:45.521Z,99.99
2017-07-11T03:43:55.797Z,99.99
2017-07-11T03:45:06.059Z,99.99
2017-07-11T03:46:16.018Z,99.99
2017-07-11T03:47:26.249Z,99.99
2017-07-11T03:48:36.199Z,99.99
2017-07-11T03:49:46.492Z,99.99
2017-07-11T03:50:56.771Z,99.99
2017-07-11T03:52:07.054Z,99.99
2017-07-11T03:53:17.563Z,99.99
2017-07-11T03:54:27.825Z,99.99
2017-07-11T03:55:37.773Z,99.99
2017-07-11T03:56:47.726Z,99.99
2017-07-11T03:57:57.980Z,99.99
2017-07-11T03:59:08.190Z,99.99
2017-07-11T04:00:18.479Z,99.99
2017-07-11T04:01:28.433Z,99.99
2017-07-11T04:02:38.065Z,99.99
2017-07-11T04:03:48.317Z,99.99
2017-07-11T04:04:58.837Z,99.99
2017-07-11T04:06:09.116Z,99.99
2017-07-11T04:07:19.439Z,99.99
2017-07-11T04:08:29.693Z,99.99
2017-07-11T04:09:39.654Z,99.99
2017-07-11T04:10:50.222Z,99.99
2017-07-11T04:12:00.500Z,99.99
2017-07-11T04:13:10.778Z,99.99
2017-07-11T04:14:21.038Z,99.99
2017-07-11T04:15:31.304Z,99.99
2017-07-11T04:16:41.825Z,99.99
2017-07-11T04:17:52.111Z,99.99
2017-07-11T04:19:02.374Z,99.99
2017-07-11T04:20:12.634Z,99.99
2017-07-11T04:21:22.580Z,99.99
2017-07-11T04:22:33.102Z,99.99
2017-07-11T04:23:43.104Z,99.99
2017-07-11T04:24:53.399Z,99.99
2017-07-11T04:26:03.664Z,99.99
2017-07-11T04:27:13.620Z,99.99
2017-07-11T04:28:24.147Z,99.99
2017-07-11T04:29:34.416Z,99.99
2017-07-11T04:30:44.366Z,99.99
2017-07-11T04:31:54.306Z,99.99
2017-07-11T04:33:04.577Z,99.99
2017-07-11T04:34:14.788Z,99.99
2017-07-11T04:35:24.763Z,99.99
2017-07-11T04:36:35.022Z,99.99
2017-07-11T04:37:45.288Z,99.99
2017-07-11T04:38:55.242Z,99.99
2017-07-11T04:40:05.760Z,99.99
2017-07-11T04:41:16.009Z,99.99
2017-07-11T04:42:26.297Z,99.99
2017-07-11T04:43:36.560Z,99.99
2017-07-11T04:44:46.839Z,99.99
2017-07-11T04:45:57.096Z,99.99
2017-07-11T04:47:07.431Z,99.99
2017-07-11T04:48:17.080Z,99.99
2017-07-11T04:49:27.039Z,99.99
2017-07-11T04:50:37.298Z,99.99
2017-07-11T04:51:47.816Z,99.99
2017-07-11T04:52:58.069Z,99.99
2017-07-11T04:54:08.341Z,99.99
2017-07-11T04:55:18.636Z,99.99
2017-07-11T04:56:28.582Z,99.99
2017-07-11T04:57:39.101Z,99.99
2017-07-11T04:58:49.374Z,99.99
2017-07-11T04:59:59.327Z,99.99
2017-07-11T05:01:09.305Z,99.99
2017-07-11T05:02:19.251Z,99.99
2017-07-11T05:03:29.765Z,99.99
2017-07-11T05:04:40.033Z,99.99
2017-07-11T05:05:50.319Z,99.99
2017-07-11T05:07:00.616Z,99.99
2017-07-11T05:08:10.877Z,99.99
2017-07-11T05:09:21.402Z,99.99
2017-07-11T05:10:31.367Z,99.99
2017-07-11T05:11:41.325Z,99.99
2017-07-11T05:12:51.613Z,99.99
2017-07-11T05:14:01.875Z,99.99
2017-07-11T05:15:12.087Z,99.99
2017-07-11T05:16:22.369Z,99.99
2017-07-11T05:17:32.315Z,99.99
2017-07-11T05:18:42.575Z,99.99
2017-07-11T05:19:52.840Z,99.99
2017-07-11T05:21:03.416Z,99.99
2017-07-11T05:22:13.686Z,99.99
2017-07-11T05:23:23.964Z,99.99
2017-07-11T05:24:34.217Z,99.99
2017-07-11T05:25:44.481Z,99.99
2017-07-11T05:26:54.990Z,99.99
2017-07-11T05:28:04.624Z,99.99
2017-07-11T05:29:14.568Z,99.99
2017-07-11T05:30:24.854Z,99.99
2017-07-11T05:31:34.826Z,99.99
2017-07-11T05:32:45.349Z,99.99
2017-07-11T05:33:55.629Z,99.99
2017-07-11T05:35:05.878Z,99.99
2017-07-11T05:36:15.907Z,99.99
2017-07-11T05:37:25.541Z,99.99
2017-07-11T05:38:36.071Z,99.99
2017-07-11T05:39:46.023Z,99.76
2017-07-11T05:40:55.963Z,99.99
2017-07-11T05:42:05.919Z,99.99
2017-07-11T05:43:16.204Z,99.99
2017-07-11T05:44:26.720Z,99.99
2017-07-11T05:45:36.987Z,99.99
2017-07-11T05:46:46.939Z,99.99
2017-07-11T05:47:57.241Z,99.99
2017-07-11T05:49:07.517Z,99.86
2017-07-11T05:50:17.717Z,99.99
2017-07-11T05:51:28.006Z,99.99
2017-07-11T05:52:38.325Z,99.57
2017-07-11T05:53:48.621Z,99.99
2017-07-11T05:54:58.895Z,99.99
2017-07-11T05:56:09.461Z,99.99
2017-07-11T05:57:19.732Z,99.72
2017-07-11T05:58:30.017Z,99.99
2017-07-11T05:59:39.966Z,99.99
2017-07-11T06:00:50.251Z,99.99
2017-07-11T06:02:00.781Z,99.99
2017-07-11T06:03:10.415Z,99.99
2017-07-11T06:04:20.689Z,99.81
2017-07-11T06:05:30.969Z,99.81
2017-07-11T06:06:41.240Z,99.91
2017-07-11T06:07:51.737Z,99.99
2017-07-11T06:09:02.013Z,99.72
2017-07-11T06:10:12.280Z,99.72
2017-07-11T06:11:22.568Z,99.72
2017-07-11T06:12:32.853Z,99.99
2017-07-11T06:13:43.062Z,99.99
2017-07-11T06:14:53.321Z,99.62
2017-07-11T06:16:03.746Z,99.99
2017-07-11T06:17:13.723Z,99.72
2017-07-11T06:18:23.681Z,99.72
2017-07-11T06:19:34.211Z,99.99
2017-07-11T06:20:44.491Z,99.62
2017-07-11T06:21:54.763Z,99.99
2017-07-11T06:23:05.031Z,99.67
2017-07-11T06:24:15.353Z,99.19
2017-07-11T06:25:30.187Z,99.29
2017-07-11T06:26:40.148Z,99.77
2017-07-11T06:27:50.426Z,99.38
2017-07-11T06:29:00.705Z,99.99
2017-07-11T06:30:11.004Z,99.29
2017-07-11T06:31:21.273Z,98.91
2017-07-11T06:32:31.556Z,99.58
2017-07-11T06:33:41.841Z,99.1
2017-07-11T06:34:51.793Z,99.19
2017-07-11T06:36:01.778Z,98.86
2017-07-11T06:37:12.333Z,98.47
2017-07-11T06:38:22.590Z,98
2017-07-11T06:39:32.867Z,98.19
2017-07-11T06:40:43.165Z,98.57
2017-07-11T06:41:53.445Z,98.52
2017-07-11T06:43:03.662Z,98.52
2017-07-11T06:44:13.922Z,98.47
2017-07-11T06:45:23.575Z,97.71
2017-07-11T06:46:33.858Z,97.33
2017-07-11T06:47:44.156Z,97.33
2017-07-11T06:48:54.692Z,97.42
2017-07-11T06:50:04.640Z,97.23
2017-07-11T06:51:14.593Z,97.52
2017-07-11T06:52:24.230Z,97.42
2017-07-11T06:53:34.515Z,98.19
2017-07-11T06:54:45.052Z,97.42
2017-07-11T06:55:55.015Z,97.9
2017-07-11T06:57:05.304Z,97.14
2017-07-11T06:58:15.639Z,97.04
2017-07-11T06:59:25.933Z,97.14
2017-07-11T07:00:36.143Z,96.7
2017-07-11T07:01:46.422Z,95.17
2017-07-11T07:02:56.704Z,95.94
2017-07-11T07:04:06.974Z,95.26
2017-07-11T07:05:16.928Z,95.94
2017-07-11T07:06:27.461Z,95.51
2017-07-11T07:07:37.420Z,95.26
2017-07-11T07:08:47.726Z,95.36
2017-07-11T07:09:57.682Z,95.22
2017-07-11T07:11:07.963Z,95.89
2017-07-11T07:12:18.523Z,95.56
2017-07-11T07:13:28.804Z,96.18
2017-07-11T07:14:38.752Z,96.18
2017-07-11T07:15:48.774Z,96.51
2017-07-11T07:16:58.737Z,95.7
2017-07-11T07:18:08.945Z,95.89
2017-07-11T07:19:19.252Z,96.08
2017-07-11T07:20:29.212Z,95.22
2017-07-11T07:21:39.499Z,95.41
2017-07-11T07:22:49.766Z,96.37
2017-07-11T07:23:59.983Z,97.23
2017-07-11T07:25:10.252Z,97.52
2017-07-11T07:26:20.545Z,96.56
2017-07-11T07:27:30.516Z,96.47
2017-07-11T07:28:40.477Z,96.27
2017-07-11T07:29:50.752Z,96.37
2017-07-11T07:31:00.706Z,95.22
2017-07-11T07:32:10.985Z,95.7
2017-07-11T07:33:21.278Z,95.51
2017-07-11T07:34:31.543Z,95.89
2017-07-11T07:35:41.735Z,95.98
2017-07-11T07:36:52.010Z,95.98
2017-07-11T07:38:02.291Z,96.18
2017-07-11T07:39:12.567Z,94.59
2017-07-11T07:40:22.947Z,94.21
2017-07-11T07:41:33.513Z,93.16
2017-07-11T07:42:43.773Z,92.77
2017-07-11T07:43:54.030Z,93.63
2017-07-11T07:45:04.308Z,94.5
2017-07-11T07:46:14.586Z,93.63
2017-07-11T07:47:25.093Z,92.54
2017-07-11T07:48:35.398Z,92.24
2017-07-11T07:49:45.337Z,92.63
2017-07-11T07:50:55.614Z,92.63
2017-07-11T07:52:05.575Z,92.91
2017-07-11T07:53:15.787Z,93.49
2017-07-11T07:54:25.743Z,93.49
2017-07-11T07:55:36.003Z,91.19
2017-07-11T07:56:46.507Z,92.24
2017-07-11T07:57:56.786Z,91.96
2017-07-11T07:59:06.983Z,91.77
2017-07-11T08:00:17.269Z,91.67
2017-07-11T08:01:27.546Z,89.79
2017-07-11T08:02:37.836Z,90.08
2017-07-11T08:03:48.120Z,91.62
2017-07-11T08:04:58.639Z,89.7
2017-07-11T08:06:08.924Z,89.89
2017-07-11T08:07:19.205Z,89.79
2017-07-11T08:08:29.162Z,90.08
2017-07-11T08:09:39.423Z,91.42
2017-07-11T08:10:49.625Z,88.45
2017-07-11T08:11:59.888Z,88.49
2017-07-11T08:13:10.175Z,88.02
2017-07-11T08:14:20.544Z,88.4
2017-07-11T08:15:30.825Z,88.59
2017-07-11T08:16:41.388Z,88.69
2017-07-11T08:17:51.670Z,88.45
2017-07-11T08:19:01.955Z,88.49
2017-07-11T08:20:11.601Z,88.69
2017-07-11T08:21:21.576Z,88.4
2017-07-11T08:22:32.112Z,89.55
2017-07-11T08:23:42.395Z,88.59
2017-07-11T08:24:52.367Z,88.35
2017-07-11T08:26:02.326Z,88.83
2017-07-11T08:27:12.601Z,88.54
2017-07-11T08:28:23.134Z,88.45
2017-07-11T08:29:33.410Z,89.4
2017-07-11T08:30:43.365Z,88.93
2017-07-11T08:31:53.668Z,88.01
2017-07-11T08:33:03.944Z,87.43
2017-07-11T08:34:14.468Z,87.43
2017-07-11T08:35:24.745Z,85.99
2017-07-11T08:36:35.023Z,86.85
2017-07-11T08:37:45.295Z,86.04
2017-07-11T08:38:55.566Z,86.13
2017-07-11T08:40:06.108Z,86.57
2017-07-11T08:41:16.388Z,87.05
2017-07-11T08:42:26.370Z,86.28
2017-07-11T08:43:36.685Z,87.05
2017-07-11T08:44:46.987Z,86.13
2017-07-11T08:45:57.540Z,86.42
2017-07-11T08:47:07.833Z,85.55
2017-07-11T08:48:18.104Z,85.21
2017-07-11T08:49:28.384Z,85.02
2017-07-11T08:50:38.357Z,84.54
2017-07-11T08:51:48.246Z,83.72
2017-07-11T08:52:58.527Z,83.42
2017-07-11T08:54:08.473Z,83.42
2017-07-11T08:55:18.441Z,83.08
2017-07-11T08:56:28.404Z,80.91
2017-07-11T08:57:38.619Z,81.48
2017-07-11T08:58:48.921Z,80.91
2017-07-11T08:59:58.875Z,80.23
2017-07-11T09:01:08.851Z,80.33
2017-07-11T09:02:18.502Z,80.91
2017-07-11T09:03:29.045Z,81.1
2017-07-11T09:04:39.348Z,79.66
2017-07-11T09:05:49.306Z,79.79
2017-07-11T09:06:59.592Z,78.73
2017-07-11T09:08:09.553Z,78.73
2017-07-11T09:09:19.777Z,79.5
2017-07-11T09:10:30.088Z,79.69
2017-07-11T09:11:40.386Z,78.92
2017-07-11T09:12:50.661Z,78.25
2017-07-11T09:14:00.953Z,79.02
2017-07-11T09:15:11.160Z,78.44
2017-07-11T09:16:21.663Z,77.19
2017-07-11T09:17:31.967Z,77.09
2017-07-11T09:18:41.956Z,77.33
2017-07-11T09:19:52.256Z,77.13
2017-07-11T09:21:02.799Z,76.75
2017-07-11T09:22:12.762Z,77.13
2017-07-11T09:23:23.104Z,77.13
2017-07-11T09:24:33.406Z,77.13
2017-07-11T09:25:43.099Z,76.59
2017-07-11T09:26:53.623Z,74.85
2017-07-11T09:28:03.917Z,74.89
2017-07-11T09:29:13.883Z,74.79
2017-07-11T09:30:23.846Z,75.82
2017-07-11T09:31:34.136Z,76.24
2017-07-11T09:32:44.658Z,75.53
2017-07-11T09:33:54.641Z,75.76
2017-07-11T09:35:04.949Z,74.12
2017-07-11T09:36:15.245Z,74.31
2017-07-11T09:37:25.528Z,75.37
2017-07-11T09:38:36.147Z,73.93
2017-07-11T09:39:46.115Z,73.09
2017-07-11T09:40:55.781Z,73.58
2017-07-11T09:42:05.752Z,74.73
2017-07-11T09:43:16.042Z,74.69
2017-07-11T09:44:26.584Z,75.72
2017-07-11T09:45:36.626Z,76.2
2017-07-11T09:46:46.277Z,75.43
2017-07-11T09:47:56.560Z,75.62
2017-07-11T09:49:06.853Z,75.09
2017-07-11T09:50:17.059Z,75.85
2017-07-11T09:51:27.026Z,73.35
2017-07-11T09:52:37.325Z,73.25
2017-07-11T09:53:47.636Z,72.77
2017-07-11T09:54:57.951Z,73.25
2017-07-11T09:56:08.506Z,72
2017-07-11T09:57:18.812Z,73.09
2017-07-11T09:58:28.508Z,72.32
2017-07-11T09:59:38.797Z,72.94
2017-07-11T10:00:49.109Z,72.45
2017-07-11T10:01:59.378Z,72.45
2017-07-11T10:03:09.683Z,72.8
2017-07-11T10:04:19.652Z,72.26
2017-07-11T10:05:29.996Z,71.3
2017-07-11T10:06:40.316Z,71.48
2017-07-11T10:07:50.874Z,71
2017-07-11T10:09:00.944Z,71.72
2017-07-11T10:10:11.250Z,72.2
2017-07-11T10:11:21.548Z,69.24
2017-07-11T10:12:31.823Z,68.49
2017-07-11T10:13:42.386Z,66.11
2017-07-11T10:14:52.696Z,66.75
2017-07-11T10:16:02.977Z,66.75
2017-07-11T10:17:13.251Z,67.24
2017-07-11T10:18:22.897Z,66.08
2017-07-11T10:19:33.511Z,67.91
2017-07-11T10:20:43.716Z,67.21
2017-07-11T10:21:53.999Z,67.98
2017-07-11T10:23:03.979Z,68.66
2017-07-11T10:24:14.272Z,67.72
2017-07-11T10:25:24.845Z,67.69
2017-07-11T10:26:35.130Z,66.27
2017-07-11T10:27:45.131Z,67.59
2017-07-11T10:28:55.424Z,68.43
2017-07-11T10:30:05.709Z,68.33
2017-07-11T10:31:16.260Z,68.43
2017-07-11T10:32:26.294Z,66.24
2017-07-11T10:33:36.595Z,67.3
2017-07-11T10:34:46.246Z,67.46
2017-07-11T10:35:56.559Z,66.94
2017-07-11T10:37:07.077Z,67.36
2017-07-11T10:38:17.370Z,67.52
2017-07-11T10:39:27.675Z,66.94
2017-07-11T10:40:37.970Z,67.52
2017-07-11T10:41:47.965Z,65.69
2017-07-11T10:42:58.543Z,66.69
2017-07-11T10:44:08.508Z,66.11
2017-07-11T10:45:18.483Z,65.17
2017-07-11T10:46:28.500Z,61.82
2017-07-11T10:47:38.775Z,62.98
2017-07-11T10:48:48.994Z,62.88
2017-07-11T10:49:59.312Z,62.92
2017-07-11T10:51:09.616Z,62.37
2017-07-11T10:52:19.755Z,60.52
2017-07-11T10:53:30.028Z,61.08
2017-07-11T10:54:40.552Z,61.63
2017-07-11T10:55:50.844Z,62.5
2017-07-11T10:57:00.805Z,62.98
2017-07-11T10:58:11.091Z,61.63
2017-07-11T10:59:21.389Z,58.92
2017-07-11T11:00:31.614Z,60.47
2017-07-11T11:01:41.928Z,61.05
2017-07-11T11:02:52.219Z,62.3
2017-07-11T11:04:02.533Z,61.43
2017-07-11T11:05:12.525Z,60.01
2017-07-11T11:06:23.091Z,59.72
2017-07-11T11:07:33.057Z,60.47
2017-07-11T11:08:43.020Z,60.85
2017-07-11T11:09:53.301Z,59.63
2017-07-11T11:11:02.627Z,60.95
2017-07-11T11:12:12.839Z,61.43
2017-07-11T11:13:22.495Z,61.76
2017-07-11T11:14:32.783Z,60.88
2017-07-11T11:15:43.086Z,58.69
2017-07-11T11:16:52.727Z,58.78
2017-07-11T11:18:02.943Z,59.56
2017-07-11T11:19:12.930Z,60.78
2017-07-11T11:20:23.215Z,60.4
2017-07-11T11:21:33.505Z,61.18
2017-07-11T11:22:43.486Z,59.91
2017-07-11T11:23:54.013Z,60.91
2017-07-11T11:25:04.311Z,59.1
2017-07-11T11:26:14.285Z,58.74
2017-07-11T11:27:24.545Z,57
2017-07-11T11:28:34.497Z,57.22
2017-07-11T11:29:45.045Z,57.03
2017-07-11T11:30:55.356Z,57.42
2017-07-11T11:32:05.316Z,58.42
2017-07-11T11:33:15.285Z,59
2017-07-11T11:34:25.577Z,58.72
2017-07-11T11:35:35.816Z,59.17
2017-07-11T11:36:45.810Z,60.33
2017-07-11T11:37:55.789Z,62.3
2017-07-11T11:39:06.094Z,62.59
2017-07-11T11:40:16.401Z,62.82
2017-07-11T11:41:26.960Z,61.85
2017-07-11T11:42:37.235Z,62.72
2017-07-11T11:43:47.569Z,61.46
2017-07-11T11:44:57.867Z,60.72
2017-07-11T11:46:08.160Z,58.39
2017-07-11T11:47:18.735Z,58.62
2017-07-11T11:48:29.040Z,59.39
2017-07-11T11:49:39.355Z,58.23
2017-07-11T11:50:49.640Z,57.26
2017-07-11T11:51:59.940Z,57.84
2017-07-11T11:53:10.477Z,58.91
2017-07-11T11:54:20.447Z,58.23
2017-07-11T11:55:30.737Z,57.09
2017-07-11T11:56:41.026Z,57.03
2017-07-11T11:57:51.330Z,58.77
2017-07-11T11:59:01.885Z,57.22
2017-07-11T12:00:12.175Z,58.06
2017-07-11T12:01:22.452Z,56.25
2017-07-11T12:02:32.422Z,57.12
2017-07-11T12:03:42.093Z,57.48
2017-07-11T12:04:52.636Z,57.48
2017-07-11T12:06:02.315Z,57.39
2017-07-11T12:07:12.603Z,57.19
2017-07-11T12:08:22.550Z,58.39
2017-07-11T12:09:32.842Z,56.15
2017-07-11T12:10:43.062Z,55.47
2017-07-11T12:11:53.349Z,55.57
2017-07-11T12:13:03.643Z,55.5
2017-07-11T12:14:13.612Z,55.41
2017-07-11T12:15:23.263Z,55.6
2017-07-11T12:16:33.809Z,55.79
2017-07-11T12:17:44.091Z,56.09
2017-07-11T12:18:54.376Z,58.06
2017-07-11T12:20:04.358Z,58.42
2017-07-11T12:21:14.646Z,59.1
2017-07-11T12:22:25.167Z,61.11
2017-07-11T12:23:35.455Z,60.52
2017-07-11T12:24:45.728Z,61.14
2017-07-11T12:25:56.058Z,59.69
2017-07-11T12:27:06.336Z,61.04
2017-07-11T12:28:16.864Z,60.94
2017-07-11T12:29:26.836Z,61.04
2017-07-11T12:30:36.787Z,61.04
2017-07-11T12:31:47.113Z,61.04
2017-07-11T12:32:57.390Z,61.88
2017-07-11T12:34:07.904Z,61.01
2017-07-11T12:35:17.565Z,60.91
2017-07-11T12:36:27.853Z,60.65
2017-07-11T12:37:37.818Z,60.17
2017-07-11T12:38:47.792Z,60.49
2017-07-11T12:39:58.327Z,61.14
2017-07-11T12:41:08.306Z,61.04
2017-07-11T12:42:18.283Z,60.1
2017-07-11T12:43:28.566Z,60.36
2017-07-11T12:44:38.869Z,59.71
2017-07-11T12:45:49.421Z,59.33
2017-07-11T12:46:59.705Z,59.33
2017-07-11T12:48:09.999Z,60.49
2017-07-11T12:49:20.296Z,59.42
2017-07-11T12:50:30.603Z,56.64
2017-07-11T12:51:41.146Z,56.09
2017-07-11T12:52:51.100Z,56.76
2017-07-11T12:54:01.081Z,56.79
2017-07-11T12:55:11.408Z,54.97
2017-07-11T12:56:21.688Z,55.58
2017-07-11T12:57:31.907Z,55.19
2017-07-11T12:58:41.939Z,57.31
2017-07-11T12:59:52.126Z,59.12
2017-07-11T13:01:02.405Z,60.13
2017-07-11T13:02:12.391Z,60.97
2017-07-11T13:03:22.930Z,61.75
2017-07-11T13:04:32.896Z,61.14
2017-07-11T13:05:43.188Z,60.85
2017-07-11T13:06:53.473Z,62.07
2017-07-11T13:08:03.739Z,61.98
2017-07-11T13:09:14.285Z,62.75
2017-07-11T13:10:24.604Z,63.49
2017-07-11T13:11:34.937Z,64.27
2017-07-11T13:12:44.925Z,65.05
2017-07-11T13:13:55.230Z,65.4
2017-07-11T13:15:05.462Z,65.98
2017-07-11T13:16:15.737Z,65.98
2017-07-11T13:17:26.041Z,64.37
2017-07-11T13:18:36.523Z,65.05
2017-07-11T13:19:46.808Z,61.04
2017-07-11T13:20:57.347Z,61.26
2017-07-11T13:22:07.329Z,58.19
2017-07-11T13:23:17.282Z,60.64
2017-07-11T13:24:27.541Z,56.14
2017-07-11T13:25:37.506Z,56.16
2017-07-11T13:26:47.716Z,53.74
2017-07-11T13:27:57.992Z,52.72
2017-07-11T13:29:08.000Z,52.72
2017-07-11T13:30:18.302Z,52.43
2017-07-11T13:31:28.601Z,52.4
2017-07-11T13:32:39.118Z,52.5
2017-07-11T13:33:49.382Z,53.18
2017-07-11T13:34:59.665Z,54.8
2017-07-11T13:36:09.976Z,56.24
2017-07-11T13:37:19.941Z,53.61
2017-07-11T13:38:30.467Z,52.69
2017-07-11T13:39:40.755Z,52.33
2017-07-11T13:40:51.035Z,51.19
2017-07-11T13:42:01.006Z,51.75
2017-07-11T13:43:11.328Z,50.7
2017-07-11T13:44:21.884Z,52.36
2017-07-11T13:45:32.166Z,52.43
2017-07-11T13:46:41.512Z,53.5
2017-07-11T13:47:51.172Z,53.38
2017-07-11T13:49:01.122Z,52.04
2017-07-11T13:50:11.654Z,53.77
2017-07-11T13:51:21.959Z,51.92
2017-07-11T13:52:32.263Z,53.38
2017-07-11T13:53:42.549Z,52.4
2017-07-11T13:54:52.828Z,53.93
2017-07-11T13:56:03.078Z,54.42
2017-07-11T13:57:13.359Z,54.97
2017-07-11T13:58:23.647Z,55.36
2017-07-11T13:59:34.148Z,55.43
2017-07-11T14:00:44.429Z,57.51
2017-07-11T14:01:54.972Z,61.36
2017-07-11T14:03:04.948Z,62.49
2017-07-11T14:04:15.238Z,65.4
2017-07-11T14:05:25.196Z,70.5
2017-07-11T14:06:35.476Z,73.57
2017-07-11T14:07:45.373Z,75.95
2017-07-11T14:08:55.658Z,81.44
2017-07-11T14:10:05.634Z,83.23
2017-07-11T14:11:15.931Z,85.37
2017-07-11T14:12:26.242Z,88.12
2017-07-11T14:13:36.773Z,90.78
2017-07-11T14:14:47.058Z,89.77
2017-07-11T14:15:57.547Z,92.94
2017-07-11T14:17:07.839Z,93.38
2017-07-11T14:18:18.198Z,96.7
2017-07-11T14:19:28.396Z,96.42
2017-07-11T14:20:38.672Z,97.52
2017-07-11T14:21:48.964Z,96.17
2017-07-11T14:22:59.227Z,98.87
2017-07-11T14:24:09.521Z,98.24
2017-07-11T14:25:19.744Z,98.44
2017-07-11T14:26:30.031Z,99.01
2017-07-11T14:27:40.299Z,99.99
2017-07-11T14:28:50.264Z,99.88
2017-07-11T14:30:00.544Z,99.99
2017-07-11T14:31:11.089Z,98.86
2017-07-11T14:32:21.380Z,99.99
2017-07-11T14:33:31.661Z,97.52
2017-07-11T14:34:41.939Z,98.14
2017-07-11T14:35:52.227Z,98.05
2017-07-11T14:37:02.447Z,99.99
2017-07-11T14:38:12.400Z,99.01
2017-07-11T14:39:22.349Z,98.86
2017-07-11T14:40:32.304Z,99.99
2017-07-11T14:41:42.592Z,99.99
2017-07-11T14:42:52.811Z,99.2
2017-07-11T14:44:02.766Z,99.97
2017-07-11T14:45:13.035Z,99.99
2017-07-11T14:46:23.317Z,99.83
2017-07-11T14:47:33.270Z,99.99
2017-07-11T14:48:43.150Z,99.99
2017-07-11T14:49:53.427Z,99.88
2017-07-11T14:51:03.062Z,98.14
2017-07-11T14:52:13.357Z,98.49
2017-07-11T14:53:23.642Z,98.58
2017-07-11T14:54:33.528Z,96.8
2017-07-11T14:55:43.836Z,94.73
2017-07-11T14:56:54.100Z,96.42
2017-07-11T14:58:04.079Z,93.24
2017-07-11T14:59:14.398Z,98.82
2017-07-11T15:00:24.924Z,94.44
2017-07-11T15:01:35.194Z,89.09
2017-07-11T15:02:45.160Z,87.06
2017-07-11T15:03:55.456Z,88.55
2017-07-11T15:05:05.735Z,88.26
2017-07-11T15:06:16.247Z,88.26